createdAt,value
2023-03-26T00:00:50.117Z,8.00
2023-03-26T00:03:39.058Z,8.00
2023-03-26T00:06:36.679Z,7.90
2023-03-26T00:09:24.442Z,7.90
2023-03-26T00:12:12.207Z,7.90
2023-03-26T00:15:00.112Z,8.00
2023-03-26T00:17:48.081Z,8.00
2023-03-26T00:20:35.959Z,7.90
2023-03-26T00:23:24.261Z,8.00
2023-03-26T00:26:12.954Z,8.10
2023-03-26T00:29:00.911Z,8.10
2023-03-26T00:31:49.206Z,8.10
2023-03-26T00:34:37.084Z,8.10
2023-03-26T00:37:27.806Z,8.20
2023-03-26T00:40:15.619Z,8.20
2023-03-26T00:43:10.518Z,8.10
2023-03-26T00:45:58.826Z,8.10
2023-03-26T00:48:47.125Z,8.10
2023-03-26T00:51:35.066Z,8.10
2023-03-26T00:54:22.872Z,8.10
2023-03-26T00:57:12.353Z,8.00
2023-03-26T01:00:12.953Z,8.10
2023-03-26T01:03:04.418Z,8.10
2023-03-26T01:06:02.662Z,8.00
2023-03-26T01:08:52.846Z,7.90
2023-03-26T01:11:40.668Z,7.90
2023-03-26T01:14:29.756Z,7.80
2023-03-26T01:17:18.874Z,7.80
2023-03-26T01:20:20.664Z,7.80
2023-03-26T01:23:08.673Z,7.70
2023-03-26T01:26:10.858Z,7.70
2023-03-26T01:29:03.810Z,7.60
2023-03-26T01:32:09.501Z,7.60
2023-03-26T01:35:29.402Z,7.50
2023-03-26T01:39:04.216Z,7.40
2023-03-26T01:41:58.560Z,7.40
2023-03-26T01:44:57.107Z,7.40
2023-03-26T01:47:46.585Z,7.40
2023-03-26T01:50:34.572Z,7.50
2023-03-26T01:53:22.452Z,7.40
2023-03-26T01:56:34.454Z,7.50
2023-03-26T01:59:37.201Z,7.40
2023-03-26T02:02:45.984Z,7.40
2023-03-26T02:05:56.727Z,7.40
2023-03-26T02:09:04.582Z,7.40
2023-03-26T02:11:52.826Z,7.30
2023-03-26T02:14:43.005Z,7.30
2023-03-26T02:17:32.613Z,7.40
2023-03-26T02:20:21.594Z,7.40
2023-03-26T02:23:10.134Z,7.30
2023-03-26T02:25:57.934Z,7.30
2023-03-26T02:28:46.083Z,7.30
2023-03-26T02:31:33.881Z,7.30
2023-03-26T02:34:21.771Z,7.30
2023-03-26T02:37:10.501Z,7.30
2023-03-26T02:39:58.272Z,7.20
2023-03-26T02:42:47.323Z,7.10
2023-03-26T02:45:35.392Z,7.10
2023-03-26T02:48:23.309Z,7.10
2023-03-26T02:51:11.425Z,7.10
2023-03-26T02:54:00.093Z,7.10
2023-03-26T02:56:47.996Z,7.00
2023-03-26T02:59:36.044Z,7.00
2023-03-26T03:02:24.302Z,7.00
2023-03-26T03:05:12.360Z,7.00
2023-03-26T03:08:00.422Z,7.00
2023-03-26T03:11:04.299Z,7.00
2023-03-26T03:13:53.232Z,7.00
2023-03-26T03:16:41.311Z,6.90
2023-03-26T03:19:29.176Z,6.90
2023-03-26T03:22:17.133Z,6.90
2023-03-26T03:25:08.993Z,6.90
2023-03-26T03:27:56.768Z,6.90
2023-03-26T03:30:44.965Z,7.00
2023-03-26T03:33:32.979Z,6.90
2023-03-26T03:36:23.894Z,6.90
2023-03-26T03:39:11.766Z,6.90
2023-03-26T03:41:59.513Z,6.90
2023-03-26T03:44:47.463Z,6.90
2023-03-26T03:47:35.476Z,6.90
2023-03-26T03:50:23.321Z,6.90
2023-03-26T03:53:15.867Z,6.90
2023-03-26T03:56:10.142Z,7.00
2023-03-26T03:58:58.444Z,7.00
2023-03-26T04:01:48.657Z,7.00
2023-03-26T04:04:37.841Z,7.00
2023-03-26T04:07:27.217Z,7.10
2023-03-26T04:10:16.189Z,7.00
2023-03-26T04:13:04.015Z,6.90
2023-03-26T04:15:51.828Z,7.00
2023-03-26T04:18:39.946Z,7.10
2023-03-26T04:21:30.486Z,7.00
2023-03-26T04:24:18.387Z,7.00
2023-03-26T04:27:13.625Z,7.00
2023-03-26T04:30:03.588Z,6.90
2023-03-26T04:32:51.821Z,6.90
2023-03-26T04:35:41.877Z,6.90
2023-03-26T04:38:35.573Z,6.90
2023-03-26T04:41:26.398Z,6.90
2023-03-26T04:44:17.189Z,6.90
2023-03-26T04:47:05.208Z,7.00
2023-03-26T04:49:53.086Z,7.10
2023-03-26T04:52:42.626Z,7.10
2023-03-26T04:55:39.444Z,7.10
2023-03-26T04:58:32.660Z,7.00
2023-03-26T05:01:21.506Z,7.00
2023-03-26T05:04:09.443Z,7.10
2023-03-26T05:06:59.498Z,7.00
2023-03-26T05:09:47.340Z,7.00
2023-03-26T05:12:35.334Z,7.00
2023-03-26T05:15:23.361Z,7.10
2023-03-26T05:18:11.218Z,7.00
2023-03-26T05:20:59.645Z,7.00
2023-03-26T05:23:47.434Z,6.90
2023-03-26T05:26:36.813Z,6.90
2023-03-26T05:29:24.732Z,6.90
2023-03-26T05:32:15.669Z,6.90
2023-03-26T05:35:03.965Z,7.00
2023-03-26T05:37:51.977Z,7.10
2023-03-26T05:40:39.943Z,7.00
2023-03-26T05:43:28.836Z,7.10
2023-03-26T05:46:20.342Z,7.20
2023-03-26T05:49:08.326Z,7.20
2023-03-26T05:51:56.211Z,7.30
2023-03-26T05:54:44.102Z,7.60
2023-03-26T05:57:32.421Z,7.90
2023-03-26T06:00:20.333Z,7.60
2023-03-26T06:03:12.739Z,7.30
2023-03-26T06:06:00.834Z,7.30
2023-03-26T06:09:01.350Z,7.20
2023-03-26T06:11:50.864Z,7.30
2023-03-26T06:14:38.837Z,7.30
2023-03-26T06:17:26.939Z,7.10
2023-03-26T06:20:17.503Z,7.10
2023-03-26T06:23:06.575Z,7.20
2023-03-26T06:25:55.356Z,7.40
2023-03-26T06:28:43.168Z,7.60
2023-03-26T06:31:34.234Z,7.50
2023-03-26T06:34:22.144Z,7.90
2023-03-26T06:37:10.036Z,8.50
2023-03-26T06:39:57.822Z,8.80
2023-03-26T06:43:08.530Z,9.00
2023-03-26T06:45:56.606Z,8.90
2023-03-26T06:48:44.539Z,9.00
2023-03-26T06:51:32.662Z,8.60
2023-03-26T06:54:20.543Z,8.60
2023-03-26T06:57:08.472Z,8.30
2023-03-26T06:59:56.435Z,8.60
2023-03-26T07:02:44.705Z,9.00
2023-03-26T07:05:32.544Z,9.10
2023-03-26T07:08:20.807Z,8.90
2023-03-26T07:11:10.186Z,8.70
2023-03-26T07:13:59.496Z,8.90
2023-03-26T07:16:47.292Z,8.50
2023-03-26T07:19:35.233Z,8.20
2023-03-26T07:22:25.294Z,7.80
2023-03-26T07:25:14.463Z,7.60
2023-03-26T07:28:24.545Z,7.60
2023-03-26T07:31:29.839Z,7.80
2023-03-26T07:34:52.073Z,8.00
2023-03-26T07:38:23.172Z,8.00
2023-03-26T07:41:55.343Z,7.80
2023-03-26T07:45:03.702Z,7.70
2023-03-26T07:47:53.883Z,7.50
2023-03-26T07:50:42.221Z,7.90
2023-03-26T07:53:30.684Z,7.80
2023-03-26T07:56:29.132Z,7.70
2023-03-26T07:59:41.011Z,7.80
2023-03-26T08:02:49.806Z,7.70
2023-03-26T08:06:01.695Z,7.60
2023-03-26T08:09:42.586Z,7.80
2023-03-26T08:12:55.421Z,8.00
2023-03-26T08:16:08.935Z,7.70
2023-03-26T08:19:17.204Z,7.60
2023-03-26T08:22:26.512Z,7.60
2023-03-26T08:25:33.273Z,7.60
2023-03-26T08:28:27.034Z,7.50
2023-03-26T08:31:19.516Z,7.50
2023-03-26T08:34:12.193Z,8.00
2023-03-26T08:37:00.102Z,8.10
2023-03-26T08:39:54.357Z,7.80
2023-03-26T08:43:16.366Z,7.90
2023-03-26T08:46:58.015Z,7.90
2023-03-26T08:50:25.601Z,8.10
2023-03-26T08:53:50.286Z,8.60
2023-03-26T08:57:00.918Z,8.70
2023-03-26T09:00:24.639Z,8.40
2023-03-26T09:03:35.598Z,7.80
2023-03-26T09:07:07.028Z,7.90
2023-03-26T09:10:46.804Z,7.90
2023-03-26T09:14:07.689Z,8.10
2023-03-26T09:17:59.466Z,7.90
2023-03-26T09:21:17.281Z,7.80
2023-03-26T09:24:37.858Z,7.80
2023-03-26T09:28:04.162Z,7.90
2023-03-26T09:30:57.746Z,8.00
2023-03-26T09:34:13.399Z,7.80
2023-03-26T09:37:56.499Z,7.70
2023-03-26T09:41:06.022Z,7.70
2023-03-26T09:44:27.915Z,7.80
2023-03-26T09:47:31.201Z,7.80
2023-03-26T09:50:50.065Z,7.80
2023-03-26T09:54:26.108Z,8.00
2023-03-26T09:57:59.285Z,8.00
2023-03-26T10:01:13.340Z,8.20
2023-03-26T10:04:28.208Z,8.10
2023-03-26T10:07:49.053Z,8.00
2023-03-26T10:11:03.764Z,8.10
2023-03-26T10:14:22.162Z,8.30
2023-03-26T10:17:52.770Z,8.30
2023-03-26T10:21:07.702Z,8.20
2023-03-26T10:24:23.153Z,7.90
2023-03-26T10:27:44.056Z,7.80
2023-03-26T10:30:40.870Z,7.70
2023-03-26T10:34:08.884Z,7.80
2023-03-26T10:37:31.827Z,7.90
2023-03-26T10:41:00.833Z,7.90
2023-03-26T10:44:07.815Z,7.90
2023-03-26T10:47:19.959Z,7.80
2023-03-26T10:50:28.531Z,7.80
2023-03-26T10:53:43.491Z,8.00
2023-03-26T10:56:49.923Z,8.10
2023-03-26T10:59:37.841Z,8.40
2023-03-26T11:02:35.911Z,8.60
2023-03-26T11:06:00.192Z,8.80
2023-03-26T11:09:07.427Z,8.80
2023-03-26T11:12:38.209Z,8.90
2023-03-26T11:15:41.756Z,8.70
2023-03-26T11:18:42.683Z,9.10
2023-03-26T11:21:49.525Z,9.70
2023-03-26T11:25:06.874Z,10.60
2023-03-26T11:28:05.144Z,10.40
2023-03-26T11:31:27.947Z,10.00
2023-03-26T11:34:21.569Z,9.60
2023-03-26T11:37:20.371Z,9.50
2023-03-26T11:40:25.381Z,9.30
2023-03-26T11:43:14.533Z,9.40
2023-03-26T11:46:13.314Z,9.50
2023-03-26T11:49:09.313Z,9.10
2023-03-26T11:51:57.379Z,9.10
2023-03-26T11:54:48.490Z,9.60
2023-03-26T11:57:42.509Z,9.80
2023-03-26T12:00:30.671Z,11.20
2023-03-26T12:03:20.856Z,11.20
2023-03-26T12:06:25.841Z,11.60
2023-03-26T12:09:20.232Z,10.90
2023-03-26T12:12:12.231Z,10.40
2023-03-26T12:15:01.291Z,11.10
2023-03-26T12:17:56.458Z,11.70
2023-03-26T12:20:45.149Z,12.10
2023-03-26T12:24:00.301Z,11.50
2023-03-26T12:26:50.303Z,10.80
2023-03-26T12:29:38.318Z,11.30
2023-03-26T12:32:45.665Z,11.60
2023-03-26T12:35:38.402Z,13.00
2023-03-26T12:38:37.576Z,13.70
2023-03-26T12:43:40.420Z,15.00
2023-03-26T12:44:58.993Z,13.90
2023-03-26T12:47:59.338Z,13.30
2023-03-26T12:51:40.589Z,11.80
2023-03-26T12:55:02.672Z,12.20
2023-03-26T12:58:38.123Z,12.00
2023-03-26T13:01:53.558Z,13.00
2023-03-26T13:04:43.628Z,12.30
2023-03-26T13:07:39.982Z,11.90
2023-03-26T13:10:52.560Z,11.70
2023-03-26T13:14:24.864Z,12.20
2023-03-26T13:17:37.259Z,12.00
2023-03-26T13:20:51.575Z,12.60
2023-03-26T13:23:51.802Z,14.00
2023-03-26T13:27:11.454Z,14.30
2023-03-26T13:30:20.447Z,14.60
2023-03-26T13:33:58.262Z,14.10
2023-03-26T13:37:12.621Z,14.90
2023-03-26T13:40:37.996Z,14.10
2023-03-26T13:43:58.111Z,13.10
2023-03-26T13:47:31.463Z,12.60
2023-03-26T13:50:28.923Z,13.10
2023-03-26T13:53:37.203Z,13.00
2023-03-26T13:56:43.390Z,12.70
2023-03-26T14:00:23.265Z,12.30
2023-03-26T14:03:24.758Z,11.90
2023-03-26T14:07:06.424Z,11.40
2023-03-26T14:10:02.419Z,10.30
2023-03-26T14:13:05.764Z,10.90
2023-03-26T14:16:12.604Z,11.80
2023-03-26T14:20:05.316Z,12.10
2023-03-26T14:23:30.524Z,13.30
2023-03-26T14:27:05.687Z,13.20
2023-03-26T14:30:15.981Z,12.10
2023-03-26T14:33:40.627Z,13.10
2023-03-26T14:37:27.038Z,13.40
2023-03-26T14:41:05.566Z,12.40
2023-03-26T14:44:20.689Z,12.40
2023-03-26T14:47:22.955Z,12.60
2023-03-26T14:50:26.607Z,12.60
2023-03-26T14:53:36.431Z,12.90
2023-03-26T14:56:52.610Z,12.60
2023-03-26T15:00:06.088Z,12.50
2023-03-26T15:03:12.617Z,12.30
2023-03-26T15:06:38.437Z,12.20
2023-03-26T15:10:26.040Z,12.00
2023-03-26T15:13:59.775Z,12.00
2023-03-26T15:17:41.186Z,11.90
2023-03-26T15:21:37.695Z,12.00
2023-03-26T15:24:46.479Z,12.00
2023-03-26T15:28:25.347Z,12.00
2023-03-26T15:31:31.307Z,11.90
2023-03-26T15:34:58.469Z,12.00
2023-03-26T15:38:35.602Z,12.00
2023-03-26T15:41:34.396Z,11.80
2023-03-26T15:45:13.011Z,11.60
2023-03-26T15:48:13.448Z,9.70
2023-03-26T15:51:26.038Z,7.90
2023-03-26T15:54:57.525Z,7.40
2023-03-26T15:58:01.503Z,7.00
2023-03-26T16:01:20.767Z,6.90
2023-03-26T16:04:36.072Z,6.90
2023-03-26T16:07:48.238Z,6.80
2023-03-26T16:10:58.503Z,6.60
2023-03-26T16:14:10.506Z,6.60
2023-03-26T16:17:01.060Z,6.70
2023-03-26T16:20:14.260Z,6.70
2023-03-26T16:23:06.346Z,6.80
2023-03-26T16:26:09.137Z,7.00
2023-03-26T16:29:26.890Z,7.20
2023-03-26T16:32:28.818Z,7.70
2023-03-26T16:35:17.090Z,8.70
2023-03-26T16:38:16.293Z,9.30
2023-03-26T16:41:20.214Z,8.60
2023-03-26T16:44:37.194Z,8.20
2023-03-26T16:47:44.979Z,8.10
2023-03-26T16:51:17.300Z,7.90
2023-03-26T16:54:33.258Z,7.90
2023-03-26T16:57:28.221Z,7.90
2023-03-26T17:00:44.257Z,7.90
2023-03-26T17:03:56.485Z,7.80
2023-03-26T17:07:03.635Z,7.90
2023-03-26T17:10:24.206Z,7.90
2023-03-26T17:13:17.129Z,7.90
2023-03-26T17:16:23.602Z,8.00
2023-03-26T17:19:45.942Z,8.00
2023-03-26T17:22:50.544Z,8.00
2023-03-26T17:26:04.971Z,8.00
2023-03-26T17:29:08.046Z,7.90
2023-03-26T17:32:12.782Z,7.90
2023-03-26T17:35:04.436Z,8.00
2023-03-26T17:37:53.406Z,8.00
2023-03-26T17:40:48.469Z,8.00
2023-03-26T17:43:52.958Z,8.00
2023-03-26T17:46:48.893Z,7.90
2023-03-26T17:49:38.827Z,8.00
2023-03-26T17:52:48.714Z,8.10
2023-03-26T17:55:46.401Z,8.30
2023-03-26T17:58:37.977Z,8.20
2023-03-26T18:01:42.718Z,8.10
2023-03-26T18:04:44.345Z,8.10
2023-03-26T18:08:02.832Z,7.90
2023-03-26T18:11:08.573Z,7.80
2023-03-26T18:14:24.979Z,7.70
2023-03-26T18:17:13.120Z,7.70
2023-03-26T18:20:07.173Z,7.60
2023-03-26T18:22:55.286Z,7.50
2023-03-26T18:25:50.048Z,7.50
2023-03-26T18:28:45.469Z,7.40
2023-03-26T18:31:33.686Z,7.40
2023-03-26T18:34:22.513Z,7.50
2023-03-26T18:37:21.483Z,7.40
2023-03-26T18:40:19.017Z,7.50
2023-03-26T18:43:22.222Z,7.50
2023-03-26T18:46:23.200Z,7.50
2023-03-26T18:49:16.567Z,7.40
2023-03-26T18:52:04.780Z,7.30
2023-03-26T18:54:54.851Z,7.50
2023-03-26T18:57:43.546Z,7.50
2023-03-26T19:00:32.584Z,7.50
2023-03-26T19:03:24.282Z,7.40
2023-03-26T19:06:15.147Z,7.40
2023-03-26T19:09:23.750Z,7.40
2023-03-26T19:12:19.176Z,7.40
2023-03-26T19:15:16.511Z,7.50
2023-03-26T19:18:09.795Z,7.50
2023-03-26T19:21:01.012Z,7.40
2023-03-26T19:23:50.040Z,7.50
2023-03-26T19:26:37.991Z,7.50
2023-03-26T19:29:33.271Z,7.50
2023-03-26T19:32:34.694Z,7.50
2023-03-26T19:35:24.366Z,7.40
2023-03-26T19:38:26.173Z,7.50
2023-03-26T19:41:23.052Z,7.40
2023-03-26T19:44:27.571Z,7.50
2023-03-26T19:47:26.799Z,7.50
2023-03-26T19:50:29.103Z,7.60
2023-03-26T19:53:34.730Z,7.60
2023-03-26T19:56:23.048Z,7.60
2023-03-26T19:59:11.773Z,7.50
2023-03-26T20:01:59.861Z,7.60
2023-03-26T20:04:47.971Z,7.50
2023-03-26T20:07:39.395Z,7.40
2023-03-26T20:10:28.356Z,7.40
2023-03-26T20:13:18.115Z,7.50
2023-03-26T20:16:28.465Z,7.70
2023-03-26T20:19:16.770Z,7.80
2023-03-26T20:22:12.763Z,8.00
2023-03-26T20:28:10.379Z,8.10
2023-03-26T20:30:58.408Z,8.00
2023-03-26T20:33:47.952Z,7.90
2023-03-26T20:36:36.840Z,8.00
2023-03-26T20:39:25.576Z,7.90
2023-03-26T20:42:15.815Z,7.80
2023-03-26T20:45:21.552Z,7.70
2023-03-26T20:48:12.836Z,7.60
2023-03-26T20:51:05.070Z,7.60
2023-03-26T20:53:53.390Z,7.50
2023-03-26T20:56:45.864Z,7.50
2023-03-26T20:59:35.005Z,7.40
2023-03-26T21:02:23.753Z,7.40
2023-03-26T21:05:15.399Z,7.30
2023-03-26T21:08:03.847Z,7.30
2023-03-26T21:10:52.094Z,7.30
2023-03-26T21:13:47.061Z,7.20
2023-03-26T21:16:37.498Z,7.10
2023-03-26T21:19:26.216Z,7.00
2023-03-26T21:22:46.355Z,7.00
2023-03-26T21:26:15.951Z,7.00
2023-03-26T21:29:07.210Z,6.90
2023-03-26T21:31:55.411Z,6.90
2023-03-26T21:34:55.702Z,6.90
2023-03-26T21:37:48.730Z,6.80
2023-03-26T21:40:39.015Z,6.80
2023-03-26T21:43:28.405Z,6.90
2023-03-26T21:46:16.840Z,6.90
2023-03-26T21:49:05.342Z,6.90
2023-03-26T21:51:53.784Z,6.80
2023-03-26T21:54:43.112Z,6.80
2023-03-26T21:58:23.963Z,6.80
2023-03-26T22:01:26.382Z,6.80
2023-03-26T22:04:28.871Z,6.80
2023-03-26T22:07:31.989Z,6.90
2023-03-26T22:10:20.551Z,6.80
2023-03-26T22:13:08.591Z,6.70
2023-03-26T22:15:57.204Z,6.60
2023-03-26T22:18:45.046Z,6.60
2023-03-26T22:21:33.940Z,6.60
2023-03-26T22:24:22.066Z,6.50
2023-03-26T22:27:12.865Z,6.40
2023-03-26T22:30:01.186Z,6.30
2023-03-26T22:32:50.297Z,6.40
2023-03-26T22:35:41.265Z,6.30
2023-03-26T22:38:29.334Z,6.30
2023-03-26T22:41:17.220Z,6.30
2023-03-26T22:44:19.030Z,6.30
2023-03-26T22:47:09.494Z,6.20
2023-03-26T22:49:57.603Z,6.10
2023-03-26T22:52:46.483Z,6.00
2023-03-26T22:55:34.371Z,6.10
2023-03-26T22:58:22.642Z,6.10
2023-03-26T23:01:22.912Z,6.10
2023-03-26T23:04:10.881Z,6.10
2023-03-26T23:06:59.837Z,6.10
2023-03-26T23:09:47.786Z,6.10
2023-03-26T23:12:35.847Z,6.00
2023-03-26T23:15:25.873Z,5.90
2023-03-26T23:18:13.643Z,5.90
2023-03-26T23:21:01.724Z,5.90
2023-03-26T23:23:52.256Z,5.80
2023-03-26T23:26:47.971Z,5.70
2023-03-26T23:29:38.306Z,5.60
2023-03-26T23:32:26.191Z,5.60
2023-03-26T23:35:14.204Z,5.50
2023-03-26T23:38:02.325Z,5.40
2023-03-26T23:40:52.566Z,5.30
2023-03-26T23:43:53.424Z,5.30
2023-03-26T23:46:44.224Z,5.30
2023-03-26T23:49:32.091Z,5.30
2023-03-26T23:52:20.055Z,5.30
2023-03-26T23:55:08.396Z,5.20
2023-03-26T23:57:56.246Z,5.10
